createdAt,value
2016-08-22T13:21:10.493Z,29887.93
2016-08-22T13:21:54.758Z,29887.93
2016-08-22T13:22:04.735Z,29752.25
2016-08-22T13:22:14.688Z,29752.25
2016-08-22T13:22:24.730Z,29752.25
2016-08-22T13:22:34.685Z,29752.25
2016-08-22T13:22:44.681Z,29752.25
2016-08-22T13:22:54.679Z,29752.25
2016-08-22T13:23:04.727Z,29887.93
2016-08-22T13:23:14.674Z,29887.93
2016-08-22T13:23:24.670Z,29752.25
2016-08-22T13:23:34.662Z,29752.25
2016-08-22T13:23:44.665Z,29752.25
2016-08-22T13:25:49.586Z,29752.25
2016-08-22T13:25:59.515Z,29752.25
2016-08-22T13:26:09.514Z,29617.61
2016-08-22T13:26:19.511Z,29752.25
2016-08-22T13:26:29.504Z,29887.93
2016-08-22T13:26:39.501Z,29752.25
2016-08-22T13:26:49.499Z,29887.93
2016-08-22T13:26:59.502Z,29752.25
2016-08-22T13:27:09.497Z,29752.25
2016-08-22T13:27:19.492Z,29752.25
2016-08-22T13:27:29.489Z,29887.93
2016-08-22T13:28:29.186Z,29752.25
2016-08-22T13:28:39.119Z,29752.25
2016-08-22T13:28:49.110Z,29752.25
2016-08-22T13:28:59.107Z,29752.25
2016-08-22T13:29:09.110Z,29752.25
2016-08-22T13:29:19.107Z,29887.93
2016-08-22T13:29:29.101Z,29752.25
2016-08-22T13:29:39.103Z,29752.25
2016-08-22T13:29:49.094Z,29752.25
2016-08-22T13:29:59.092Z,29887.93
2016-08-22T13:30:53.523Z,29752.25
2016-08-22T13:31:03.454Z,29617.61
2016-08-22T13:31:13.454Z,29617.61
2016-08-22T13:31:23.453Z,29752.25
2016-08-22T13:31:33.451Z,29752.25
2016-08-22T13:31:43.449Z,29752.25
2016-08-22T13:31:53.444Z,29752.25
2016-08-22T13:32:03.445Z,29752.25
2016-08-22T13:32:13.442Z,29752.25
2016-08-22T13:32:23.434Z,29752.25
2016-08-22T13:32:33.437Z,29617.61
2016-08-22T13:32:43.429Z,29752.25
2016-08-22T13:32:53.430Z,29752.25
2016-08-22T13:33:03.429Z,29752.25
2016-08-22T13:33:13.425Z,29752.25
2016-08-22T13:33:23.419Z,29752.25
2016-08-22T13:33:33.416Z,29752.25
2016-08-22T13:33:43.420Z,29752.25
2016-08-22T13:33:53.416Z,29752.25
2016-08-22T13:34:03.412Z,29752.25
2016-08-22T13:34:13.412Z,29752.25
2016-08-22T13:34:23.403Z,29752.25
2016-08-22T13:35:28.841Z,29752.25
2016-08-22T13:35:38.841Z,29752.25
2016-08-22T13:35:48.836Z,29617.61
2016-08-22T13:35:58.836Z,7309.07
2016-08-22T13:36:08.832Z,12714.5
2016-08-22T13:36:18.832Z,14407.37
2016-08-22T13:36:28.830Z,14811.9
2016-08-22T13:36:38.830Z,29617.61
2016-08-22T13:36:48.826Z,29752.25
2016-08-22T13:36:58.825Z,29752.25
2016-08-22T13:37:08.819Z,29752.25
2016-08-22T13:37:18.818Z,29617.61
2016-08-22T13:37:28.814Z,29617.61
2016-08-22T13:37:38.811Z,29752.25
2016-08-22T13:37:48.811Z,29752.25
2016-08-22T13:37:58.801Z,29752.25
2016-08-22T13:38:08.805Z,29752.25
2016-08-22T13:38:18.797Z,29617.61
2016-08-22T13:38:28.799Z,29752.25
2016-08-22T13:38:38.792Z,29752.25
2016-08-22T13:38:48.789Z,29752.25
2016-08-22T13:38:58.785Z,29617.61
2016-08-22T13:39:08.785Z,29752.25
2016-08-22T13:39:18.785Z,29752.25
2016-08-22T13:39:28.784Z,29752.25
2016-08-22T13:39:38.782Z,29752.25
2016-08-22T13:39:48.778Z,29752.25
2016-08-22T13:39:58.774Z,29752.25
2016-08-22T13:40:08.773Z,29752.25
2016-08-22T13:40:18.765Z,29752.25
2016-08-22T13:40:28.768Z,29752.25
2016-08-22T13:40:38.765Z,29752.25
2016-08-22T13:40:48.759Z,29752.25
2016-08-22T13:40:58.755Z,29752.25
2016-08-22T13:41:08.756Z,29617.61
2016-08-22T13:41:18.754Z,29752.25
2016-08-22T13:41:28.747Z,29752.25
2016-08-22T13:41:38.749Z,29752.25
2016-08-22T13:41:48.743Z,29617.61
2016-08-22T13:41:58.736Z,29752.25
2016-08-22T13:42:08.741Z,29617.61
2016-08-22T13:42:18.734Z,29752.25
2016-08-22T13:42:28.731Z,29752.25
2016-08-22T13:42:38.733Z,29752.25
2016-08-22T13:42:48.726Z,29752.25
2016-08-22T13:42:58.728Z,29887.93
2016-08-22T13:43:19.105Z,29752.25
2016-08-22T13:43:30.241Z,29752.25
2016-08-22T13:43:41.383Z,29752.25
2016-08-22T13:43:52.520Z,29752.25
2016-08-22T13:44:03.658Z,29752.25
2016-08-22T13:44:14.795Z,29752.25
2016-08-22T13:44:25.936Z,29752.25
2016-08-22T13:44:37.076Z,29752.25
2016-08-22T13:44:47.490Z,29752.25
2016-08-22T13:44:58.633Z,29752.25
2016-08-22T13:45:09.774Z,29617.61
2016-08-22T13:45:20.911Z,29752.25
2016-08-22T13:45:32.048Z,22142.87
2016-08-22T13:45:42.458Z,22602.49
2016-08-22T13:45:52.871Z,22795.38
2016-08-22T13:46:04.008Z,29752.25
2016-08-22T13:46:15.155Z,29887.93
2016-08-22T13:46:26.294Z,29887.93
2016-08-22T13:46:37.437Z,29887.93
2016-08-22T13:46:48.581Z,29887.93
2016-08-22T13:46:58.987Z,29887.93
2016-08-22T13:47:10.128Z,29887.93
2016-08-22T13:47:21.267Z,29752.25
2016-08-22T13:47:32.409Z,29887.93
2016-08-22T13:47:43.552Z,29887.93
2016-08-22T13:47:54.693Z,29887.93
2016-08-22T13:48:05.837Z,29887.93
2016-08-22T13:48:16.976Z,29887.93
2016-08-22T13:48:28.117Z,29887.93
2016-08-22T13:48:39.271Z,29887.93
2016-08-22T13:48:50.401Z,29887.93
2016-08-22T13:49:01.538Z,29752.25
2016-08-22T13:49:12.680Z,29887.93
2016-08-22T13:49:23.819Z,29887.93
2016-08-22T13:49:34.958Z,29887.93
2016-08-22T13:49:46.100Z,29887.93
2016-08-22T13:49:57.241Z,29887.93
2016-08-22T13:50:08.378Z,29887.93
2016-08-22T13:50:19.519Z,29887.93
2016-08-22T13:50:29.932Z,29752.25
2016-08-22T13:50:41.070Z,29887.93
2016-08-22T13:50:52.208Z,29752.25
2016-08-22T13:51:02.615Z,29887.93
2016-08-22T13:51:13.030Z,29887.93
2016-08-22T13:51:24.166Z,29887.93
2016-08-22T13:51:34.579Z,29887.93
2016-08-22T13:51:44.989Z,29752.25
2016-08-22T13:51:56.131Z,29887.93
2016-08-22T13:52:07.274Z,29752.25
2016-08-22T13:52:18.408Z,29752.25
2016-08-22T13:52:36.874Z,29617.61
2016-08-22T13:52:48.010Z,29752.25
2016-08-22T13:52:59.152Z,29752.25
2016-08-22T13:53:10.288Z,29752.25
2016-08-22T13:53:20.702Z,29752.25
2016-08-22T14:02:40.102Z,29752.25
2016-08-22T14:02:51.245Z,29887.93
2016-08-22T14:03:02.382Z,29887.93
2016-08-22T14:03:13.523Z,29887.93
2016-08-22T14:03:24.666Z,29887.93
2016-08-22T14:03:35.086Z,30024.66
2016-08-22T14:03:45.493Z,29887.93
2016-08-22T14:04:13.317Z,29752.25
2016-08-22T14:04:24.467Z,29752.25
2016-08-22T14:04:35.596Z,29752.25
2016-08-22T14:04:46.007Z,29752.25
2016-08-22T14:04:57.146Z,29752.25
2016-08-22T15:36:43.116Z,79227.4
2016-08-22T15:37:00.625Z,78635.97
2016-08-22T15:37:18.866Z,79840.9
2016-08-22T15:37:36.377Z,79840.9
2016-08-22T15:37:53.898Z,79227.4
2016-08-22T15:38:10.677Z,79227.4
2016-08-22T15:38:28.911Z,79840.9
2016-08-22T15:38:46.424Z,79227.4
2016-08-22T15:39:04.293Z,79840.9
2016-08-22T15:39:21.060Z,79840.9
2016-08-22T15:39:39.305Z,79840.9
2016-08-22T15:40:00.982Z,79840.9
2016-08-22T15:40:34.418Z,79840.9
2016-08-22T15:40:52.136Z,79840.9
2016-08-22T15:41:09.634Z,79840.9
2016-08-22T15:41:26.418Z,78635.97
2016-08-22T15:41:43.940Z,25643.4
2016-08-22T15:42:00.732Z,13753.02
2016-08-22T15:42:18.970Z,12084
2016-08-22T15:42:36.484Z,11618.14
2016-08-22T15:42:54.727Z,11387.15
2016-08-22T15:43:12.241Z,11206.04
2016-08-22T15:43:29.749Z,11072.31
2016-08-22T15:43:45.792Z,10984.14
2016-08-22T15:44:02.591Z,10853.35
2016-08-22T15:44:19.364Z,10724.28
2016-08-22T15:44:36.876Z,9276.86
2016-08-22T15:44:54.381Z,8092.88
2016-08-22T15:45:11.898Z,7728
2016-08-22T15:45:30.144Z,7625.76
2016-08-22T15:45:47.643Z,7566.23
2016-08-22T15:46:05.888Z,7495.2
2016-08-22T15:46:22.666Z,7566.23
2016-08-22T15:46:37.987Z,7536.65
2016-08-22T15:46:56.231Z,7465.87
2016-08-22T15:47:14.469Z,7465.87
2016-08-22T15:47:32.708Z,7465.87
2016-08-22T15:47:50.218Z,7436.66
2016-08-22T15:48:08.455Z,7436.66
2016-08-22T15:48:26.716Z,7436.66
2016-08-22T15:48:44.236Z,7465.87
2016-08-22T15:49:01.032Z,7407.58
2016-08-22T15:49:19.270Z,7407.58
2016-08-22T15:49:36.766Z,7407.58
2016-08-22T15:49:54.258Z,7366.62
2016-08-22T15:50:11.751Z,7366.62
2016-08-22T15:50:29.262Z,7366.62
2016-08-22T15:50:46.049Z,7337.79
2016-08-22T15:51:04.290Z,7337.79
2016-08-22T15:51:21.065Z,7309.07
2016-08-22T15:51:39.306Z,7280.47
2016-08-22T15:51:57.539Z,7309.07
2016-08-22T15:52:32.654Z,7366.62
2016-08-22T15:52:49.421Z,6965.05
2016-08-22T15:53:06.926Z,6844.53
2016-08-22T15:53:24.429Z,6778.96
2016-08-22T15:53:42.669Z,6752.34
2016-08-22T15:54:00.175Z,6965.05
2016-08-22T15:54:18.422Z,6661.14
